Las Vegas, Nevada
Traffic Map
Current Weather Conditions
Las Vegas, Nevada
Broken Clouds
Broken Clouds
67°
Feels Like: 67°
Wind Chill: 67° Ceiling: 22000
Heat Index: 67° Visibility: 10mi
Dew Point: 38° Wind: 13mph
Humidity: 34% Direction: 210° (SSW)
Pressure: 30.09in Gusts: 20mph
Raw Report DataKLAS 220056Z 21011G17KT 10SM FEW100 BKN220 19/03 A3009 RMK AO2 SLP177 T01940033
Traffic Incident Summary
Active as of:
Severity:
Category:
InformationThere was an issue retrieving the traffic information for this location. Please try a different location or try again shortly.
Advertisements
Track Severe Weather on mobile